Time;durP1;ratioP1;P1;durP2;ratioP2;P2;SDS_P1;SDS_P2;PMS_P1;PMS_P2;Temp;Humidity;BMP_temperature;BMP_pressure;BME280_temperature;BME280_humidity;BME280_pressure;Samples;Min_cycle;Max_cycle;Signal;HPM_P1;HPM_P2
2023/11/18 00:00:34;;;;;;;33.42;31.92;;;;;;;;;;5028066;28;20061;-59
2023/11/18 00:03:02;;;;;;;25.83;24.70;;;;;;;;;;5029105;28;20463;-61
2023/11/18 00:05:31;;;;;;;16.23;15.55;;;;;;;;;;5029248;28;20537;-59
2023/11/18 00:08:01;;;;;;;71.00;67.18;;;;;;;;;;5028154;28;20057;-59
2023/11/18 00:10:30;;;;;;;22.25;21.33;;;;;;;;;;5029681;28;20107;-59
2023/11/18 00:12:58;;;;;;;27.25;26.05;;;;;;;;;;5024280;28;20157;-63
2023/11/18 00:15:27;;;;;;;19.73;18.92;;;;;;;;;;5019737;28;20045;-61
2023/11/18 00:17:55;;;;;;;16.95;16.25;;;;;;;;;;5026582;28;20136;-61
2023/11/18 00:20:24;;;;;;;23.33;22.33;;;;;;;;;;5028301;28;20391;-60
2023/11/18 00:22:53;;;;;;;18.63;17.83;;;;;;;;;;5027733;28;20084;-62
2023/11/18 00:25:23;;;;;;;18.90;18.10;;;;;;;;;;5028882;28;20065;-60
2023/11/18 00:27:52;;;;;;;35.88;34.33;;;;;;;;;;5032605;28;20055;-59
2023/11/18 00:30:20;;;;;;;22.73;21.77;;;;;;;;;;5027244;28;20089;-61
2023/11/18 00:32:48;;;;;;;16.48;15.77;;;;;;;;;;5031251;28;20668;-62
2023/11/18 00:35:17;;;;;;;16.15;15.45;;;;;;;;;;5028468;28;20084;-62
2023/11/18 00:37:46;;;;;;;19.63;18.80;;;;;;;;;;5027062;28;20060;-62
2023/11/18 00:40:17;;;;;;;26.58;25.42;;;;;;;;;;5024959;28;20038;-59
2023/11/18 00:42:47;;;;;;;13.93;13.32;;;;;;;;;;5029977;28;20058;-61
2023/11/18 00:45:16;;;;;;;33.55;32.00;;;;;;;;;;5032965;28;20651;-60
2023/11/18 00:47:44;;;;;;;11.77;11.27;;;;;;;;;;5030113;28;20106;-60
2023/11/18 00:50:13;;;;;;;12.63;12.13;;;;;;;;;;5021535;28;20037;-61
2023/11/18 00:52:42;;;;;;;20.10;19.20;;;;;;;;;;5027469;28;20049;-61
2023/11/18 00:55:11;;;;;;;11.63;11.13;;;;;;;;;;5027719;28;20458;-61
2023/11/18 00:57:40;;;;;;;12.00;11.50;;;;;;;;;;5033310;28;20052;-59
2023/11/18 01:00:15;;;;;;;11.60;11.10;;;;;;;;;;5047102;28;20052;-60
2023/11/18 01:02:46;;;;;;;11.63;11.13;;;;;;;;;;5047256;28;20131;-62
2023/11/18 01:05:15;;;;;;;9.70;9.30;;;;;;;;;;5047845;28;20138;-61
2023/11/18 01:07:44;;;;;;;11.43;10.93;;;;;;;;;;5040382;28;20061;-61
2023/11/18 01:10:13;;;;;;;9.32;8.93;;;;;;;;;;5025933;28;20041;-60
2023/11/18 01:12:44;;;;;;;14.45;13.85;;;;;;;;;;5025690;28;20099;-61
2023/11/18 01:15:15;;;;;;;11.35;10.85;;;;;;;;;;5021770;28;20124;-60
2023/11/18 01:17:44;;;;;;;10.65;10.25;;;;;;;;;;5026342;28;20061;-61
2023/11/18 01:20:13;;;;;;;10.02;9.63;;;;;;;;;;5026345;28;20045;-63
2023/11/18 01:22:45;;;;;;;13.88;13.23;;;;;;;;;;5025255;28;20111;-64
2023/11/18 01:25:14;;;;;;;9.82;9.43;;;;;;;;;;5027179;28;20056;-60
2023/11/18 01:27:42;;;;;;;10.25;9.85;;;;;;;;;;5026874;28;20049;-64
2023/11/18 01:30:11;;;;;;;12.20;11.70;;;;;;;;;;5027216;28;20494;-61
2023/11/18 01:32:41;;;;;;;13.45;12.85;;;;;;;;;;5026576;28;20045;-63
2023/11/18 01:35:12;;;;;;;10.23;9.82;;;;;;;;;;5027968;28;20045;-62
2023/11/18 01:37:40;;;;;;;11.02;10.63;;;;;;;;;;5027160;28;20057;-61
2023/11/18 01:40:12;;;;;;;11.52;11.02;;;;;;;;;;5021705;28;20053;-63
2023/11/18 01:42:43;;;;;;;10.13;9.73;;;;;;;;;;5026640;28;20056;-59
2023/11/18 01:45:12;;;;;;;11.45;10.95;;;;;;;;;;5026174;28;20107;-62
2023/11/18 01:47:43;;;;;;;10.05;9.65;;;;;;;;;;5030036;28;20073;-59
2023/11/18 01:50:12;;;;;;;9.20;8.80;;;;;;;;;;5030440;28;20037;-61
2023/11/18 01:52:41;;;;;;;9.45;9.05;;;;;;;;;;5028132;28;20049;-62
2023/11/18 01:55:14;;;;;;;11.90;11.40;;;;;;;;;;5027937;28;20046;-61
2023/11/18 01:57:43;;;;;;;10.23;9.82;;;;;;;;;;5023594;28;20053;-59
2023/11/18 02:00:17;;;;;;;68.15;64.72;;;;;;;;;;5028063;28;20049;-62
2023/11/18 02:02:47;;;;;;;9.93;9.52;;;;;;;;;;5026860;28;20405;-60
2023/11/18 02:05:17;;;;;;;9.90;9.50;;;;;;;;;;5030683;28;20056;-63
2023/11/18 02:07:46;;;;;;;9.05;8.65;;;;;;;;;;5024917;28;20054;-59
2023/11/18 02:10:15;;;;;;;9.43;9.02;;;;;;;;;;5033263;28;20052;-59
2023/11/18 02:12:47;;;;;;;8.80;8.45;;;;;;;;;;5025766;28;20127;-60
2023/11/18 02:15:17;;;;;;;9.35;8.95;;;;;;;;;;5021113;28;20399;-60
2023/11/18 02:17:48;;;;;;;8.63;8.32;;;;;;;;;;5026264;28;20479;-60
2023/11/18 02:20:20;;;;;;;9.15;8.75;;;;;;;;;;5030487;28;20049;-59
2023/11/18 02:22:49;;;;;;;8.95;8.60;;;;;;;;;;5025958;28;20052;-62
2023/11/18 02:25:18;;;;;;;8.60;8.30;;;;;;;;;;5032432;28;20418;-61
2023/11/18 02:27:48;;;;;;;7.70;7.40;;;;;;;;;;5027036;28;20305;-60
2023/11/18 02:30:17;;;;;;;8.65;8.25;;;;;;;;;;5025812;28;20050;-60
2023/11/18 02:32:49;;;;;;;8.25;7.95;;;;;;;;;;5029343;28;20487;-60
2023/11/18 02:35:21;;;;;;;9.35;8.95;;;;;;;;;;5021556;28;20054;-60
2023/11/18 02:37:52;;;;;;;8.27;7.97;;;;;;;;;;5031646;28;20144;-60
2023/11/18 02:40:21;;;;;;;14.13;13.52;;;;;;;;;;5022765;28;20342;-60
2023/11/18 02:42:52;;;;;;;8.07;7.78;;;;;;;;;;5029642;28;20087;-59
2023/11/18 02:45:22;;;;;;;9.90;9.50;;;;;;;;;;5027605;28;20056;-60
2023/11/18 02:47:50;;;;;;;8.45;8.15;;;;;;;;;;5021175;28;20576;-60
2023/11/18 02:50:19;;;;;;;8.10;7.80;;;;;;;;;;5033917;28;20132;-62
2023/11/18 02:52:48;;;;;;;7.25;6.95;;;;;;;;;;5031885;28;20555;-61
2023/11/18 02:55:17;;;;;;;7.47;7.18;;;;;;;;;;5028430;28;20072;-60
2023/11/18 02:57:46;;;;;;;12.77;12.27;;;;;;;;;;5031354;28;20046;-59
2023/11/18 03:00:19;;;;;;;8.57;8.18;;;;;;;;;;5029656;28;20103;-61
2023/11/18 03:02:48;;;;;;;11.13;10.70;;;;;;;;;;5031085;28;20053;-61
2023/11/18 03:05:16;;;;;;;9.50;9.10;;;;;;;;;;5032384;28;20061;-59
2023/11/18 03:07:47;;;;;;;7.35;7.05;;;;;;;;;;5027955;28;20046;-61
2023/11/18 03:10:20;;;;;;;7.05;6.75;;;;;;;;;;5035423;28;20490;-60
2023/11/18 03:12:49;;;;;;;7.10;6.80;;;;;;;;;;5026038;28;20564;-61
2023/11/18 03:15:19;;;;;;;7.22;6.93;;;;;;;;;;5029199;28;20265;-60
2023/11/18 03:17:48;;;;;;;7.47;7.18;;;;;;;;;;5020226;28;20053;-60
2023/11/18 03:20:17;;;;;;;8.35;7.95;;;;;;;;;;5028786;28;20042;-61
2023/11/18 03:22:46;;;;;;;10.52;10.13;;;;;;;;;;5031590;28;20041;-59
2023/11/18 03:25:14;;;;;;;11.25;10.77;;;;;;;;;;5032792;28;20057;-60
2023/11/18 03:27:44;;;;;;;8.40;8.10;;;;;;;;;;5030263;28;20580;-61
2023/11/18 03:30:12;;;;;;;8.10;7.80;;;;;;;;;;5030767;28;20053;-62
2023/11/18 03:32:42;;;;;;;10.75;10.35;;;;;;;;;;5035352;28;20487;-60
2023/11/18 03:35:11;;;;;;;69.97;66.45;;;;;;;;;;5034024;28;20129;-61
2023/11/18 03:37:40;;;;;;;10.05;9.65;;;;;;;;;;5035582;28;20079;-60
2023/11/18 03:40:11;;;;;;;14.20;13.60;;;;;;;;;;5025444;28;20034;-60
2023/11/18 03:42:39;;;;;;;9.43;9.02;;;;;;;;;;5033787;28;20052;-64
2023/11/18 03:45:09;;;;;;;10.45;10.05;;;;;;;;;;5025293;28;20508;-61
2023/11/18 03:47:37;;;;;;;9.57;9.18;;;;;;;;;;5033267;28;20049;-60
2023/11/18 03:50:09;;;;;;;9.13;8.73;;;;;;;;;;5029364;28;20049;-61
2023/11/18 03:52:38;;;;;;;8.77;8.48;;;;;;;;;;5033899;28;20131;-60
2023/11/18 03:55:07;;;;;;;7.72;7.43;;;;;;;;;;5029413;28;20095;-60
2023/11/18 03:57:36;;;;;;;11.60;11.10;;;;;;;;;;5027779;28;20103;-60
2023/11/18 04:00:04;;;;;;;11.93;11.43;;;;;;;;;;5028309;28;20092;-61
2023/11/18 04:02:34;;;;;;;7.63;7.32;;;;;;;;;;5031861;28;20132;-59
2023/11/18 04:05:03;;;;;;;6.82;6.53;;;;;;;;;;5032165;28;20167;-61
2023/11/18 04:07:33;;;;;;;6.50;6.30;;;;;;;;;;5033690;28;20057;-59
2023/11/18 04:10:01;;;;;;;12.02;11.52;;;;;;;;;;5034325;28;20056;-60
2023/11/18 04:12:30;;;;;;;8.38;8.07;;;;;;;;;;5029420;28;20592;-60
2023/11/18 04:14:59;;;;;;;9.85;9.45;;;;;;;;;;5025779;28;20132;-62
2023/11/18 04:17:28;;;;;;;7.65;7.35;;;;;;;;;;5030712;28;20080;-60
2023/11/18 04:19:56;;;;;;;7.93;7.63;;;;;;;;;;5031052;28;20129;-62
2023/11/18 04:22:25;;;;;;;11.00;10.60;;;;;;;;;;5031712;28;20491;-59
2023/11/18 04:24:55;;;;;;;8.30;8.00;;;;;;;;;;5034091;28;20053;-60
2023/11/18 04:27:23;;;;;;;7.40;7.10;;;;;;;;;;5029505;28;20037;-61
2023/11/18 04:29:52;;;;;;;9.00;8.60;;;;;;;;;;5026377;28;20291;-61
2023/11/18 04:32:20;;;;;;;9.27;8.88;;;;;;;;;;5026247;28;20082;-60
2023/11/18 04:34:51;;;;;;;7.68;7.38;;;;;;;;;;5028645;28;20127;-59
2023/11/18 04:37:19;;;;;;;6.95;6.65;;;;;;;;;;5027295;28;20087;-61
2023/11/18 04:39:48;;;;;;;84.60;78.68;;;;;;;;;;5024538;28;20142;-61
2023/11/18 04:42:18;;;;;;;4.70;4.50;;;;;;;;;;5028375;28;20445;-60
2023/11/18 04:44:46;;;;;;;5.93;5.72;;;;;;;;;;5028349;28;20050;-60
2023/11/18 04:47:15;;;;;;;5.82;5.63;;;;;;;;;;5027349;28;20499;-60
2023/11/18 04:49:43;;;;;;;6.72;6.45;;;;;;;;;;5028806;28;20056;-59
2023/11/18 04:52:12;;;;;;;6.07;5.85;;;;;;;;;;5028518;28;20358;-60
2023/11/18 04:54:40;;;;;;;6.40;6.05;;;;;;;;;;5027305;28;20121;-61
2023/11/18 04:57:08;;;;;;;5.63;5.43;;;;;;;;;;5027886;28;20042;-60
2023/11/18 04:59:38;;;;;;;7.18;6.88;;;;;;;;;;5028612;28;20042;-61
2023/11/18 05:02:07;;;;;;;3.75;3.55;;;;;;;;;;5025969;28;20042;-60
2023/11/18 05:04:35;;;;;;;3.70;3.50;;;;;;;;;;5025461;28;20529;-59
2023/11/18 05:07:06;;;;;;;4.07;3.88;;;;;;;;;;5027596;28;20045;-61
2023/11/18 05:09:35;;;;;;;4.10;3.90;;;;;;;;;;5027843;28;20152;-60
2023/11/18 05:12:03;;;;;;;3.97;3.70;;;;;;;;;;5025068;28;20495;-59
2023/11/18 05:14:32;;;;;;;4.80;4.60;;;;;;;;;;5025075;28;20596;-65
2023/11/18 05:17:04;;;;;;;3.88;3.67;;;;;;;;;;5022320;28;20050;-60
2023/11/18 05:19:33;;;;;;;3.80;3.60;;;;;;;;;;5021284;28;20045;-59
2023/11/18 05:22:01;;;;;;;4.03;3.83;;;;;;;;;;5025248;28;20049;-60
2023/11/18 05:24:30;;;;;;;4.10;3.90;;;;;;;;;;5027669;28;20099;-61
2023/11/18 05:27:01;;;;;;;3.85;3.65;;;;;;;;;;5022831;28;20064;-60
2023/11/18 05:29:29;;;;;;;4.10;3.90;;;;;;;;;;5024668;28;20416;-61
2023/11/18 05:31:58;;;;;;;4.00;3.80;;;;;;;;;;5027002;28;20556;-67
2023/11/18 05:34:28;;;;;;;4.22;4.03;;;;;;;;;;5023547;28;20050;-59
2023/11/18 05:36:57;;;;;;;3.63;3.42;;;;;;;;;;5028152;28;20557;-60
2023/11/18 05:39:27;;;;;;;4.28;3.97;;;;;;;;;;5047658;28;20041;-59
2023/11/18 05:41:56;;;;;;;3.78;3.58;;;;;;;;;;5047288;28;20095;-62
2023/11/18 05:44:30;;;;;;;3.72;3.53;;;;;;;;;;5043915;28;20056;-62
2023/11/18 05:46:59;;;;;;;4.15;3.95;;;;;;;;;;5040463;28;20052;-61
2023/11/18 05:49:28;;;;;;;3.60;3.50;;;;;;;;;;5046561;28;20444;-60
2023/11/18 05:51:57;;;;;;;3.78;3.58;;;;;;;;;;5047394;28;20501;-59
2023/11/18 05:54:25;;;;;;;3.90;3.70;;;;;;;;;;5046630;28;20063;-61
2023/11/18 05:56:54;;;;;;;4.07;3.88;;;;;;;;;;5042647;28;20575;-60
2023/11/18 05:59:26;;;;;;;3.50;3.40;;;;;;;;;;5044489;28;20052;-60
2023/11/18 06:01:56;;;;;;;4.00;3.80;;;;;;;;;;5046523;28;20445;-60
2023/11/18 06:04:25;;;;;;;4.03;3.83;;;;;;;;;;5047029;28;20049;-60
2023/11/18 06:06:55;;;;;;;4.20;4.00;;;;;;;;;;5046695;28;20355;-64
2023/11/18 06:09:25;;;;;;;4.35;4.15;;;;;;;;;;5038072;28;20053;-60
2023/11/18 06:11:54;;;;;;;9.90;3.80;;;;;;;;;;5047344;28;20145;-59
2023/11/18 06:14:23;;;;;;;3.72;3.53;;;;;;;;;;5042697;28;20049;-65
2023/11/18 06:16:51;;;;;;;4.45;4.25;;;;;;;;;;5043011;28;20045;-60
2023/11/18 06:19:20;;;;;;;3.65;3.45;;;;;;;;;;5047144;28;20048;-59
2023/11/18 06:21:49;;;;;;;4.50;4.30;;;;;;;;;;5048721;28;20456;-61
2023/11/18 06:24:21;;;;;;;4.03;3.83;;;;;;;;;;5042758;28;20051;-59
2023/11/18 06:26:49;;;;;;;4.07;3.88;;;;;;;;;;5049646;28;20115;-61
2023/11/18 06:29:18;;;;;;;3.92;3.72;;;;;;;;;;5048627;28;20067;-60
2023/11/18 06:31:47;;;;;;;5.25;4.95;;;;;;;;;;5048488;28;20068;-60
2023/11/18 06:34:18;;;;;;;4.00;3.70;;;;;;;;;;5050747;28;20053;-61
2023/11/18 06:36:46;;;;;;;4.45;4.22;;;;;;;;;;5066335;28;20068;-59
2023/11/18 06:39:16;;;;;;;4.53;4.30;;;;;;;;;;5054763;28;20130;-59
2023/11/18 06:41:50;;;;;;;4.10;3.90;;;;;;;;;;5052528;28;20048;-61
2023/11/18 06:44:23;;;;;;;4.50;4.30;;;;;;;;;;5059710;28;20056;-60
2023/11/18 06:46:52;;;;;;;4.97;4.60;;;;;;;;;;5061261;28;20132;-61
2023/11/18 06:49:20;;;;;;;3.80;3.60;;;;;;;;;;5037489;28;20049;-60
2023/11/18 06:51:49;;;;;;;4.30;4.10;;;;;;;;;;5032171;28;20057;-61
2023/11/18 06:54:17;;;;;;;4.30;4.10;;;;;;;;;;5027113;28;20053;-62
2023/11/18 06:56:47;;;;;;;3.97;3.78;;;;;;;;;;5028949;28;20045;-61
2023/11/18 06:59:15;;;;;;;3.80;3.60;;;;;;;;;;5049974;28;20123;-60
2023/11/18 07:01:44;;;;;;;4.22;4.03;;;;;;;;;;5049574;28;20053;-61
2023/11/18 07:04:15;;;;;;;4.32;4.13;;;;;;;;;;5050648;28;20047;-60
2023/11/18 07:06:44;;;;;;;4.15;3.95;;;;;;;;;;5041767;28;20044;-60
2023/11/18 07:09:17;;;;;;;4.30;4.10;;;;;;;;;;5045302;28;20114;-60
2023/11/18 07:11:48;;;;;;;4.47;4.18;;;;;;;;;;5047118;28;20051;-60
2023/11/18 07:14:17;;;;;;;4.78;4.47;;;;;;;;;;5047528;28;20053;-60
2023/11/18 07:16:46;;;;;;;4.00;3.80;;;;;;;;;;5046038;28;20494;-59
2023/11/18 07:19:19;;;;;;;4.38;4.18;;;;;;;;;;5048307;28;20453;-61
2023/11/18 07:21:50;;;;;;;4.80;4.50;;;;;;;;;;5045526;28;20064;-60
2023/11/18 07:24:19;;;;;;;4.28;4.07;;;;;;;;;;5049525;28;20056;-61
2023/11/18 07:26:50;;;;;;;4.50;4.30;;;;;;;;;;5046511;28;20087;-59
2023/11/18 07:29:19;;;;;;;3.85;3.65;;;;;;;;;;5028384;28;20119;-60
2023/11/18 07:31:49;;;;;;;4.25;3.95;;;;;;;;;;5027452;28;20048;-60
2023/11/18 07:34:17;;;;;;;4.10;3.90;;;;;;;;;;5029969;28;20045;-60
2023/11/18 07:36:48;;;;;;;4.40;4.20;;;;;;;;;;5025344;28;20083;-61
2023/11/18 07:39:19;;;;;;;4.18;3.97;;;;;;;;;;5025552;28;20062;-61
2023/11/18 07:41:49;;;;;;;4.47;4.18;;;;;;;;;;5026555;28;20060;-59
2023/11/18 07:44:18;;;;;;;4.13;3.92;;;;;;;;;;5027231;28;20045;-61
2023/11/18 07:46:46;;;;;;;4.22;4.00;;;;;;;;;;5027377;28;20372;-60
2023/11/18 07:49:16;;;;;;;3.80;3.60;;;;;;;;;;5023848;28;20053;-60
2023/11/18 07:51:45;;;;;;;3.95;3.65;;;;;;;;;;5027940;28;20045;-60
2023/11/18 07:54:13;;;;;;;3.80;3.60;;;;;;;;;;5024281;28;20046;-60
2023/11/18 07:56:42;;;;;;;4.13;3.90;;;;;;;;;;5027637;28;20081;-61
2023/11/18 07:59:15;;;;;;;3.72;3.63;;;;;;;;;;5023311;28;20046;-60
2023/11/18 08:01:46;;;;;;;4.03;3.83;;;;;;;;;;5027569;28;20087;-60
2023/11/18 08:04:14;;;;;;;3.60;3.40;;;;;;;;;;5028410;28;20045;-59
2023/11/18 08:06:43;;;;;;;4.05;3.85;;;;;;;;;;5027673;28;20065;-59
2023/11/18 08:09:13;;;;;;;4.28;4.07;;;;;;;;;;5025171;28;20499;-62
2023/11/18 08:11:42;;;;;;;4.13;3.92;;;;;;;;;;5030233;28;20053;-62
2023/11/18 08:14:12;;;;;;;4.35;4.15;;;;;;;;;;5022791;28;20957;-59
2023/11/18 08:16:40;;;;;;;4.10;3.90;;;;;;;;;;5020635;28;20479;-61
2023/11/18 08:19:09;;;;;;;4.60;4.40;;;;;;;;;;5028116;28;20061;-61
2023/11/18 08:21:38;;;;;;;3.70;3.50;;;;;;;;;;5025952;28;20053;-61
2023/11/18 08:24:08;;;;;;;4.43;4.22;;;;;;;;;;5020763;28;20049;-61
2023/11/18 08:26:36;;;;;;;4.43;4.13;;;;;;;;;;5021012;28;20050;-59
2023/11/18 08:29:06;;;;;;;3.97;3.78;;;;;;;;;;5021993;28;20139;-60
2023/11/18 08:31:36;;;;;;;3.67;3.47;;;;;;;;;;5026081;28;20144;-61
2023/11/18 08:34:05;;;;;;;3.97;3.78;;;;;;;;;;5023768;28;20536;-60
2023/11/18 08:36:33;;;;;;;4.13;3.90;;;;;;;;;;5025198;28;20418;-61
2023/11/18 08:39:03;;;;;;;3.60;3.40;;;;;;;;;;5043753;28;20314;-61
2023/11/18 08:41:32;;;;;;;3.88;3.67;;;;;;;;;;5047835;28;20092;-58
2023/11/18 08:44:02;;;;;;;3.95;3.75;;;;;;;;;;5044250;28;20110;-60
2023/11/18 08:46:52;;;;;;;4.22;4.03;;;;;;;;;;5046496;28;20053;-62
2023/11/18 08:49:21;;;;;;;4.07;3.88;;;;;;;;;;5025004;28;20064;-59
2023/11/18 08:51:55;;;;;;;3.92;3.72;;;;;;;;;;5024656;28;20490;-60
2023/11/18 08:54:36;;;;;;;3.50;3.30;;;;;;;;;;5026943;28;20041;-59
2023/11/18 08:57:23;;;;;;;3.70;3.50;;;;;;;;;;5025770;28;20482;-59
2023/11/18 08:59:52;;;;;;;4.25;4.05;;;;;;;;;;5023560;28;20507;-58
2023/11/18 09:02:23;;;;;;;3.80;3.60;;;;;;;;;;5020708;28;20041;-59
2023/11/18 09:04:55;;;;;;;3.60;3.40;;;;;;;;;;5023601;28;20057;-59
2023/11/18 09:07:23;;;;;;;3.60;3.40;;;;;;;;;;5023549;28;20059;-59
2023/11/18 09:09:52;;;;;;;3.60;3.40;;;;;;;;;;5023034;28;20139;-59
2023/11/18 09:12:21;;;;;;;3.70;3.50;;;;;;;;;;5018415;28;20037;-61
2023/11/18 09:14:51;;;;;;;4.03;3.72;;;;;;;;;;5023270;28;20056;-60
2023/11/18 09:17:22;;;;;;;3.85;3.63;;;;;;;;;;5022837;28;20574;-58
2023/11/18 09:19:52;;;;;;;3.80;3.60;;;;;;;;;;5016373;28;20492;-61
2023/11/18 09:22:21;;;;;;;3.88;3.67;;;;;;;;;;5016056;28;20056;-59
2023/11/18 09:24:51;;;;;;;3.85;3.65;;;;;;;;;;5014212;28;20054;-60
2023/11/18 09:27:20;;;;;;;3.42;3.22;;;;;;;;;;5017521;28;20052;-59
2023/11/18 09:29:49;;;;;;;3.95;3.75;;;;;;;;;;5026070;28;20430;-59
2023/11/18 09:32:18;;;;;;;3.55;3.45;;;;;;;;;;5019546;28;20049;-60
2023/11/18 09:34:48;;;;;;;3.60;3.45;;;;;;;;;;5018373;28;20151;-58
2023/11/18 09:37:18;;;;;;;3.97;3.78;;;;;;;;;;5023917;28;20057;-60
2023/11/18 09:39:52;;;;;;;3.70;3.50;;;;;;;;;;5023642;28;20061;-60
2023/11/18 09:42:24;;;;;;;4.23;4.03;;;;;;;;;;5030339;28;20520;-58
2023/11/18 09:44:55;;;;;;;3.50;3.30;;;;;;;;;;5032140;28;20649;-59
2023/11/18 09:47:24;;;;;;;3.60;3.45;;;;;;;;;;5026023;28;20057;-60
2023/11/18 09:49:59;;;;;;;3.70;3.50;;;;;;;;;;5029525;28;20124;-59
2023/11/18 09:52:31;;;;;;;3.65;3.45;;;;;;;;;;5028015;28;20076;-60
2023/11/18 09:55:04;;;;;;;3.50;3.30;;;;;;;;;;5026017;28;20100;-60
2023/11/18 09:57:37;;;;;;;3.40;3.20;;;;;;;;;;5031511;28;20080;-61
2023/11/18 10:00:19;;;;;;;3.40;3.20;;;;;;;;;;5030366;28;20046;-60
2023/11/18 10:02:50;;;;;;;3.83;3.63;;;;;;;;;;5030699;28;20080;-60
2023/11/18 10:05:22;;;;;;;3.40;3.20;;;;;;;;;;5032329;28;20434;-60
2023/11/18 10:07:52;;;;;;;3.20;3.00;;;;;;;;;;5031744;28;20048;-59
2023/11/18 10:10:21;;;;;;;3.58;3.38;;;;;;;;;;5034698;28;20052;-61
2023/11/18 10:12:52;;;;;;;3.15;3.05;;;;;;;;;;5031780;28;20053;-62
2023/11/18 10:15:23;;;;;;;3.63;3.42;;;;;;;;;;5024776;28;20494;-58
2023/11/18 10:17:57;;;;;;;3.60;3.40;;;;;;;;;;5024913;28;20320;-58
2023/11/18 10:20:44;;;;;;;3.17;2.97;;;;;;;;;;5033163;28;20057;-59
2023/11/18 10:23:18;;;;;;;3.75;3.55;;;;;;;;;;5021806;28;20510;-63
2023/11/18 10:25:48;;;;;;;3.50;3.40;;;;;;;;;;5027555;28;20046;-61
2023/11/18 10:28:23;;;;;;;3.88;3.67;;;;;;;;;;5032118;28;20569;-62
2023/11/18 10:30:52;;;;;;;3.42;3.33;;;;;;;;;;5030107;28;20352;-60
2023/11/18 10:33:21;;;;;;;3.65;3.45;;;;;;;;;;5030249;28;20049;-60
2023/11/18 10:35:55;;;;;;;3.00;2.90;;;;;;;;;;5035521;28;20365;-61
2023/11/18 10:38:26;;;;;;;3.63;3.47;;;;;;;;;;5029354;28;20057;-62
2023/11/18 10:40:56;;;;;;;3.50;3.30;;;;;;;;;;5018248;28;20505;-64
2023/11/18 10:43:25;;;;;;;3.40;3.25;;;;;;;;;;5024213;28;20055;-61
2023/11/18 10:45:54;;;;;;;2.97;2.88;;;;;;;;;;5026558;28;20603;-60
2023/11/18 10:48:24;;;;;;;3.05;2.95;;;;;;;;;;5020216;28;20054;-60
2023/11/18 10:50:54;;;;;;;3.30;3.20;;;;;;;;;;5019082;28;20076;-60
2023/11/18 10:53:22;;;;;;;3.13;2.92;;;;;;;;;;5026302;28;20403;-60
2023/11/18 10:55:51;;;;;;;3.00;2.90;;;;;;;;;;5022059;28;20080;-64
2023/11/18 10:58:20;;;;;;;3.40;3.30;;;;;;;;;;5027208;28;20108;-60
2023/11/18 11:00:49;;;;;;;2.80;2.70;;;;;;;;;;5029311;28;20112;-61
2023/11/18 11:03:18;;;;;;;3.13;3.03;;;;;;;;;;5025625;28;20064;-60
2023/11/18 11:05:48;;;;;;;3.33;3.22;;;;;;;;;;5022815;28;20048;-60
2023/11/18 11:08:18;;;;;;;3.35;3.15;;;;;;;;;;5027247;28;20111;-60
2023/11/18 11:11:02;;;;;;;3.25;3.05;;;;;;;;;;5023633;28;20049;-60
2023/11/18 11:13:33;;;;;;;3.00;2.90;;;;;;;;;;5025978;28;20485;-61
2023/11/18 11:16:05;;;;;;;3.13;3.03;;;;;;;;;;5020654;28;20544;-61
2023/11/18 11:18:38;;;;;;;3.00;2.90;;;;;;;;;;5028671;28;20053;-60
2023/11/18 11:21:10;;;;;;;3.00;2.90;;;;;;;;;;5023121;28;20045;-61
2023/11/18 11:23:49;;;;;;;2.90;2.80;;;;;;;;;;5023552;28;20528;-60
2023/11/18 11:26:27;;;;;;;3.22;3.13;;;;;;;;;;5027878;28;20581;-59
2023/11/18 11:29:02;;;;;;;2.95;2.85;;;;;;;;;;5023392;28;20146;-61
2023/11/18 11:31:33;;;;;;;3.13;3.00;;;;;;;;;;5028943;28;21416;-61
2023/11/18 11:34:04;;;;;;;2.97;2.88;;;;;;;;;;5028218;28;20081;-60
2023/11/18 11:36:39;;;;;;;2.95;2.75;;;;;;;;;;5026858;28;20053;-61
2023/11/18 11:39:15;;;;;;;2.80;2.70;;;;;;;;;;5025971;28;20056;-62
2023/11/18 11:41:51;;;;;;;2.33;2.22;;;;;;;;;;5025197;28;20056;-60
2023/11/18 11:44:20;;;;;;;2.10;2.00;;;;;;;;;;5026861;28;20049;-60
2023/11/18 11:46:52;;;;;;;2.17;2.08;;;;;;;;;;5026606;28;20064;-61
2023/11/18 11:49:27;;;;;;;2.25;2.15;;;;;;;;;;5039499;28;20118;-60
2023/11/18 11:51:58;;;;;;;2.10;2.00;;;;;;;;;;5045934;28;20060;-65
2023/11/18 11:54:29;;;;;;;2.20;2.10;;;;;;;;;;5048402;28;20041;-61
2023/11/18 11:57:00;;;;;;;1.67;1.67;;;;;;;;;;5047607;28;20616;-60
2023/11/18 11:59:37;;;;;;;1.98;1.88;;;;;;;;;;5048090;28;20106;-61
2023/11/18 12:02:09;;;;;;;2.05;1.95;;;;;;;;;;5049297;28;20044;-62
2023/11/18 12:04:41;;;;;;;2.13;1.98;;;;;;;;;;5046613;28;20414;-62
2023/11/18 12:07:10;;;;;;;1.75;1.65;;;;;;;;;;5045778;28;20077;-62
2023/11/18 12:09:53;;;;;;;1.95;1.88;;;;;;;;;;5043978;28;20140;-60
2023/11/18 12:12:26;;;;;;;1.90;1.90;;;;;;;;;;5048146;28;20052;-60
2023/11/18 12:14:57;;;;;;;2.25;2.15;;;;;;;;;;5044135;28;20037;-61
2023/11/18 12:17:31;;;;;;;1.80;1.70;;;;;;;;;;5047423;28;20064;-60
2023/11/18 12:20:06;;;;;;;;;;;;;;;;;;5045671;28;20253;-60
2023/11/18 12:23:00;;;;;;;2.85;2.65;;;;;;;;;;5047907;28;20381;-60
2023/11/18 12:25:36;;;;;;;2.75;2.65;;;;;;;;;;5044080;28;20060;-62
2023/11/18 12:28:11;;;;;;;2.42;2.33;;;;;;;;;;5047694;28;20498;-61
2023/11/18 12:30:43;;;;;;;2.08;1.98;;;;;;;;;;5043113;28;20057;-61
2023/11/18 12:33:18;;;;;;;1.70;1.63;;;;;;;;;;5045514;28;20060;-60
2023/11/18 12:36:16;;;;;;;2.13;2.03;;;;;;;;;;5047638;28;20106;-60
2023/11/18 12:39:00;;;;;;;2.30;2.20;;;;;;;;;;5043924;28;20044;-64
2023/11/18 12:41:39;;;;;;;2.20;2.10;;;;;;;;;;5082124;27;20953;-62
2023/11/18 12:44:23;;;;;;;2.25;2.05;;;;;;;;;;5084976;28;20485;-61
2023/11/18 12:46:54;;;;;;;2.33;2.22;;;;;;;;;;5078486;27;20052;-63
2023/11/18 12:49:24;;;;;;;2.10;2.00;;;;;;;;;;5053575;28;20360;-61
2023/11/18 12:51:55;;;;;;;2.03;1.92;;;;;;;;;;5059772;28;20172;-63
2023/11/18 12:54:24;;;;;;;2.00;1.90;;;;;;;;;;5059556;28;20075;-62
2023/11/18 12:56:56;;;;;;;2.10;2.00;;;;;;;;;;5060495;28;20110;-62
2023/11/18 12:59:24;;;;;;;2.03;1.92;;;;;;;;;;5061573;28;20044;-61
2023/11/18 13:01:56;;;;;;;1.92;1.83;;;;;;;;;;5060269;28;20127;-64
2023/11/18 13:04:27;;;;;;;2.20;2.10;;;;;;;;;;5049779;28;20047;-62
2023/11/18 13:06:56;;;;;;;2.10;2.00;;;;;;;;;;5057502;28;20075;-62
2023/11/18 13:09:30;;;;;;;2.20;2.10;;;;;;;;;;5056630;28;20037;-62
2023/11/18 13:12:04;;;;;;;2.33;2.23;;;;;;;;;;5053833;28;20049;-61
2023/11/18 13:14:36;;;;;;;2.20;2.10;;;;;;;;;;5057890;28;20294;-63
2023/11/18 13:17:06;;;;;;;2.20;2.10;;;;;;;;;;5060825;28;20291;-61
2023/11/18 13:19:35;;;;;;;2.10;2.00;;;;;;;;;;5064264;28;21369;-63
2023/11/18 13:22:07;;;;;;;1.98;1.88;;;;;;;;;;5063425;28;20461;-61
2023/11/18 13:24:39;;;;;;;2.45;2.33;;;;;;;;;;5069503;28;20080;-63
2023/11/18 13:27:10;;;;;;;2.33;2.22;;;;;;;;;;5068773;28;20098;-61
2023/11/18 13:29:39;;;;;;;2.22;2.10;;;;;;;;;;5064491;28;20464;-62
2023/11/18 13:32:09;;;;;;;2.25;2.15;;;;;;;;;;5062157;28;20045;-64
2023/11/18 13:34:38;;;;;;;1.83;1.80;;;;;;;;;;5054043;28;20042;-61
2023/11/18 13:37:07;;;;;;;2.10;2.00;;;;;;;;;;5047343;28;20041;-61
2023/11/18 13:39:38;;;;;;;1.90;1.80;;;;;;;;;;5046808;28;20060;-62
2023/11/18 13:42:21;;;;;;;2.13;2.03;;;;;;;;;;5052036;28;20430;-62
2023/11/18 13:44:50;;;;;;;2.20;2.10;;;;;;;;;;5057337;28;20449;-62
2023/11/18 13:47:19;;;;;;;2.08;1.98;;;;;;;;;;5053395;28;20482;-61
2023/11/18 13:49:50;;;;;;;25.75;22.92;;;;;;;;;;5055859;28;20136;-60
2023/11/18 13:52:20;;;;;;;5.55;5.35;;;;;;;;;;5042391;28;20046;-63
2023/11/18 13:54:55;;;;;;;1.90;1.80;;;;;;;;;;5032251;28;20063;-65
2023/11/18 13:57:24;;;;;;;;;;;;;;;;;;5040482;28;20095;-63
2023/11/18 13:59:54;;;;;;;2.08;1.98;;;;;;;;;;5043665;28;19936;-62
2023/11/18 14:02:23;;;;;;;1.90;1.80;;;;;;;;;;5049781;28;20433;-59
2023/11/18 14:04:55;;;;;;;2.28;2.17;;;;;;;;;;5046131;28;20136;-62
2023/11/18 14:07:24;;;;;;;2.10;2.00;;;;;;;;;;5040683;28;20053;-60
2023/11/18 14:09:56;;;;;;;1.73;1.73;;;;;;;;;;5044004;28;20060;-59
2023/11/18 14:12:27;;;;;;;2.00;1.90;;;;;;;;;;5047594;28;20060;-61
2023/11/18 14:14:57;;;;;;;2.00;1.90;;;;;;;;;;5044331;28;20052;-60
2023/11/18 14:17:26;;;;;;;1.73;1.70;;;;;;;;;;5045188;28;20049;-59
2023/11/18 14:19:54;;;;;;;2.13;2.03;;;;;;;;;;5049630;28;20045;-59
2023/11/18 14:22:23;;;;;;;1.70;1.70;;;;;;;;;;5044010;28;20044;-59
2023/11/18 14:24:51;;;;;;;2.00;1.90;;;;;;;;;;5043579;28;20461;-61
2023/11/18 14:27:20;;;;;;;2.20;2.10;;;;;;;;;;5043565;28;20053;-63
2023/11/18 14:29:47;;;;;;;2.10;2.00;;;;;;;;;;5043461;28;20188;-62
2023/11/18 14:32:17;;;;;;;2.42;2.33;;;;;;;;;;5046175;28;20045;-63
2023/11/18 14:34:48;;;;;;;2.00;1.90;;;;;;;;;;5049253;28;20131;-62
2023/11/18 14:37:19;;;;;;;1.90;1.80;;;;;;;;;;5047042;28;20486;-62
2023/11/18 14:39:48;;;;;;;2.15;2.05;;;;;;;;;;5040450;28;20450;-62
2023/11/18 14:42:16;;;;;;;2.13;2.00;;;;;;;;;;5047333;28;20041;-62
2023/11/18 14:44:45;;;;;;;2.25;2.15;;;;;;;;;;5046388;28;20456;-62
2023/11/18 14:47:13;;;;;;;2.25;2.15;;;;;;;;;;5037388;28;20042;-61
2023/11/18 14:49:44;;;;;;;2.05;1.95;;;;;;;;;;5038773;28;20045;-61
2023/11/18 14:52:12;;;;;;;2.20;2.10;;;;;;;;;;5046206;28;20111;-61
2023/11/18 14:54:42;;;;;;;1.98;1.88;;;;;;;;;;5041822;28;20163;-61
2023/11/18 14:57:10;;;;;;;2.33;2.22;;;;;;;;;;5045722;28;20045;-62